Time,TemperatureF,DewpointF,PressureIn,WindDirection,WindDirectionDegrees,WindSpeedMPH,WindSpeedGustMPH,Humidity,HourlyPrecipIn,Conditions,Clouds,dailyrainin,SoftwareType,DateUTC
2013-03-24 00:00:00,68.8,67.9,29.50,SSW,202,9.0,19.0,97,0.00,,,-99.99,WeatherLink 5.6,2013-03-24 05:00:00,
2013-03-24 00:30:00,68.8,67.6,29.50,SSW,202,7.0,17.0,96,0.00,,,-99.99,WeatherLink 5.6,2013-03-24 05:30:00,
2013-03-24 01:00:00,68.4,67.2,29.50,SSW,202,8.0,18.0,96,0.00,,,-99.99,WeatherLink 5.6,2013-03-24 06:00:00,
2013-03-24 01:30:00,68.3,67.4,29.50,SSW,202,8.0,19.0,97,0.00,,,-99.99,WeatherLink 5.6,2013-03-24 06:30:00,
2013-03-24 02:00:00,67.9,67.0,29.50,SSW,202,6.0,16.0,97,0.00,,,-99.99,WeatherLink 5.6,2013-03-24 07:00:00,
2013-03-24 02:30:00,67.6,66.7,29.49,SSW,202,7.0,17.0,97,0.00,,,-99.99,WeatherLink 5.6,2013-03-24 07:30:00,
2013-03-24 03:00:00,67.8,67.2,29.49,SW,225,6.0,16.0,98,0.00,,,-99.99,WeatherLink 5.6,2013-03-24 08:00:00,
2013-03-24 03:30:00,68.1,67.5,29.49,SW,225,5.0,13.0,98,0.00,,,-99.99,WeatherLink 5.6,2013-03-24 08:30:00,
2013-03-24 04:00:00,67.8,67.2,29.49,West,270,4.0,13.0,98,0.00,,,-99.99,WeatherLink 5.6,2013-03-24 09:00:00,
2013-03-24 04:30:00,67.6,67.0,29.49,West,270,4.0,13.0,98,0.00,,,-99.99,WeatherLink 5.6,2013-03-24 09:30:00,
2013-03-24 05:00:00,67.3,66.7,29.49,WSW,247,1.0,6.0,98,0.00,,,-99.99,WeatherLink 5.6,2013-03-24 10:00:00,
2013-03-24 05:30:00,66.6,65.7,29.49,WSW,247,0.0,1.0,97,0.00,,,-99.99,WeatherLink 5.6,2013-03-24 10:30:00,
2013-03-24 06:00:00,65.0,64.1,29.52,NW,315,1.0,7.0,97,0.00,,,-99.99,WeatherLink 5.6,2013-03-24 11:00:00,
2013-03-24 06:30:00,64.2,62.7,29.52,North,0,0.0,5.0,95,0.00,,,-99.99,WeatherLink 5.6,2013-03-24 11:30:00,
2013-03-24 07:00:00,63.9,62.1,29.53,North,0,0.0,4.0,94,0.00,,,-99.99,WeatherLink 5.6,2013-03-24 12:00:00,
2013-03-24 07:30:00,63.1,61.0,29.52,North,0,0.0,2.0,93,0.00,,,-99.99,WeatherLink 5.6,2013-03-24 12:30:00,
2013-03-24 08:00:00,62.3,60.6,29.52,North,-999,0.0,0.0,94,0.00,,,-99.99,WeatherLink 5.6,2013-03-24 13:00:00,
2013-03-24 08:30:00,63.2,61.4,29.56,WNW,292,0.0,7.0,94,0.00,,,-99.99,WeatherLink 5.6,2013-03-24 13:30:00,
2013-03-24 09:00:00,64.5,61.5,29.57,West,270,2.0,9.0,90,0.00,,,-99.99,WeatherLink 5.6,2013-03-24 14:00:00,
2013-03-24 09:30:00,66.8,61.5,29.58,West,270,1.0,6.0,83,0.00,,,-99.99,WeatherLink 5.6,2013-03-24 14:30:00,
2013-03-24 10:00:00,68.6,62.2,29.60,West,270,3.0,11.0,80,0.00,,,-99.99,WeatherLink 5.6,2013-03-24 15:00:00,
2013-03-24 10:30:00,68.6,62.5,29.62,West,270,4.0,14.0,81,0.00,,,-99.99,WeatherLink 5.6,2013-03-24 15:30:00,
2013-03-24 11:00:00,70.1,62.2,29.62,West,270,5.0,14.0,76,0.00,,,-99.99,WeatherLink 5.6,2013-03-24 16:00:00,
2013-03-24 11:30:00,72.1,62.2,29.60,West,270,1.0,7.0,71,0.00,,,-99.99,WeatherLink 5.6,2013-03-24 16:30:00,
2013-03-24 12:00:00,74.0,61.9,29.61,West,270,3.0,11.0,66,0.00,,,-99.99,WeatherLink 5.6,2013-03-24 17:00:00,
2013-03-24 12:30:00,75.4,62.8,29.61,West,270,4.0,15.0,65,0.00,,,-99.99,WeatherLink 5.6,2013-03-24 17:30:00,
2013-03-24 13:00:00,72.3,63.2,29.62,WSW,247,5.0,17.0,73,0.00,,,-99.99,WeatherLink 5.6,2013-03-24 18:00:00,
2013-03-24 13:30:00,73.9,63.1,29.60,SW,225,4.0,15.0,69,0.00,,,-99.99,WeatherLink 5.6,2013-03-24 18:30:00,
2013-03-24 14:00:00,76.7,58.8,29.60,WNW,292,5.0,18.0,54,0.00,,,-99.99,WeatherLink 5.6,2013-03-24 19:00:00,
2013-03-24 14:30:00,75.4,59.1,29.60,WNW,292,6.0,22.0,57,0.00,,,-99.99,WeatherLink 5.6,2013-03-24 19:30:00,
2013-03-24 15:00:00,72.7,58.5,29.60,WNW,292,6.0,23.0,61,0.00,,,-99.99,WeatherLink 5.6,2013-03-24 20:00:00,
2013-03-24 15:30:00,71.5,56.4,29.61,WNW,292,7.0,20.0,59,0.00,,,-99.99,WeatherLink 5.6,2013-03-24 20:30:00,
2013-03-24 16:00:00,72.1,56.0,29.60,WNW,292,5.0,19.0,57,0.00,,,-99.99,WeatherLink 5.6,2013-03-24 21:00:00,
2013-03-24 16:30:00,70.9,52.9,29.60,WNW,292,8.0,26.0,53,0.00,,,-99.99,WeatherLink 5.6,2013-03-24 21:30:00,
2013-03-24 17:00:00,70.1,50.0,29.61,WNW,292,8.0,30.0,49,0.00,,,-99.99,WeatherLink 5.6,2013-03-24 22:00:00,
2013-03-24 17:30:00,68.9,47.3,29.63,WNW,292,8.0,23.0,46,0.00,,,-99.99,WeatherLink 5.6,2013-03-24 22:30:00,
2013-03-24 18:00:00,68.3,42.4,29.63,WNW,292,9.0,24.0,39,0.00,,,-99.99,WeatherLink 5.6,2013-03-24 23:00:00,
2013-03-24 18:30:00,67.9,33.6,29.64,WNW,292,7.0,23.0,28,0.00,,,-99.99,WeatherLink 5.6,2013-03-24 23:30:00,
2013-03-24 19:00:00,66.8,34.3,29.65,WNW,292,8.0,20.0,30,0.00,,,-99.99,WeatherLink 5.6,2013-03-25 00:00:00,
2013-03-24 19:30:00,64.7,36.4,29.68,WNW,292,6.0,19.0,35,0.00,,,-99.99,WeatherLink 5.6,2013-03-25 00:30:00,
2013-03-24 20:00:00,62.4,28.8,29.71,NW,315,6.0,22.0,28,0.00,,,-99.99,WeatherLink 5.6,2013-03-25 01:00:00,
2013-03-24 20:30:00,60.2,31.7,29.74,NW,315,5.0,22.0,34,0.00,,,-99.99,WeatherLink 5.6,2013-03-25 01:30:00,
2013-03-24 21:00:00,58.3,27.0,29.75,WNW,292,6.0,19.0,30,0.00,,,-99.99,WeatherLink 5.6,2013-03-25 02:00:00,
2013-03-24 21:30:00,56.5,29.1,29.77,WNW,292,4.0,16.0,35,0.00,,,-99.99,WeatherLink 5.6,2013-03-25 02:30:00,
2013-03-24 22:00:00,55.3,32.0,29.80,NW,315,3.0,19.0,41,0.00,,,-99.99,WeatherLink 5.6,2013-03-25 03:00:00,
2013-03-24 22:30:00,54.2,33.3,29.82,NW,315,3.0,13.0,45,0.00,,,-99.99,WeatherLink 5.6,2013-03-25 03:30:00,
2013-03-24 23:00:00,52.6,32.9,29.84,NW,315,3.0,14.0,47,0.00,,,-99.99,WeatherLink 5.6,2013-03-25 04:00:00,
2013-03-24 23:30:00,50.8,31.3,29.86,NW,315,4.0,23.0,47,0.00,,,-99.99,WeatherLink 5.6,2013-03-25 04:30:00,